sensor_id;sensor_type;location;lat;lon;timestamp;temperature;humidity
14097;DHT22;7125;48.106;11.544;2023-04-24T00:01:41;9.70;99.90
14097;DHT22;7125;48.106;11.544;2023-04-24T00:04:08;9.70;99.90
14097;DHT22;7125;48.106;11.544;2023-04-24T00:06:36;9.70;99.90
14097;DHT22;7125;48.106;11.544;2023-04-24T00:09:04;9.70;99.90
14097;DHT22;7125;48.106;11.544;2023-04-24T00:11:31;9.70;99.90
14097;DHT22;7125;48.106;11.544;2023-04-24T00:13:58;9.60;99.90
14097;DHT22;7125;48.106;11.544;2023-04-24T00:16:25;9.60;99.90
14097;DHT22;7125;48.106;11.544;2023-04-24T00:18:55;9.60;99.90
14097;DHT22;7125;48.106;11.544;2023-04-24T00:21:23;9.60;99.90
14097;DHT22;7125;48.106;11.544;2023-04-24T00:23:51;9.60;99.90
14097;DHT22;7125;48.106;11.544;2023-04-24T00:26:18;9.50;99.90
14097;DHT22;7125;48.106;11.544;2023-04-24T00:28:45;9.50;99.90
14097;DHT22;7125;48.106;11.544;2023-04-24T00:31:12;9.50;99.90
14097;DHT22;7125;48.106;11.544;2023-04-24T00:33:39;9.50;99.90
14097;DHT22;7125;48.106;11.544;2023-04-24T00:36:08;9.50;99.90
14097;DHT22;7125;48.106;11.544;2023-04-24T00:38:35;9.50;99.90
14097;DHT22;7125;48.106;11.544;2023-04-24T00:41:02;9.50;99.90
14097;DHT22;7125;48.106;11.544;2023-04-24T00:43:29;9.40;99.90
14097;DHT22;7125;48.106;11.544;2023-04-24T00:45:57;9.40;99.90
14097;DHT22;7125;48.106;11.544;2023-04-24T00:48:25;9.40;99.90
14097;DHT22;7125;48.106;11.544;2023-04-24T00:50:52;9.30;99.90
14097;DHT22;7125;48.106;11.544;2023-04-24T00:53:21;9.30;99.90
14097;DHT22;7125;48.106;11.544;2023-04-24T00:55:48;9.30;99.90
14097;DHT22;7125;48.106;11.544;2023-04-24T00:58:15;9.30;99.90
14097;DHT22;7125;48.106;11.544;2023-04-24T01:00:42;9.30;99.90
14097;DHT22;7125;48.106;11.544;2023-04-24T01:03:11;9.30;99.90
14097;DHT22;7125;48.106;11.544;2023-04-24T01:05:38;9.30;99.90
14097;DHT22;7125;48.106;11.544;2023-04-24T01:08:06;9.30;99.90
14097;DHT22;7125;48.106;11.544;2023-04-24T01:10:35;9.20;99.90
14097;DHT22;7125;48.106;11.544;2023-04-24T01:13:03;9.20;99.90
14097;DHT22;7125;48.106;11.544;2023-04-24T01:15:30;9.20;99.90
14097;DHT22;7125;48.106;11.544;2023-04-24T01:17:56;9.20;99.90
14097;DHT22;7125;48.106;11.544;2023-04-24T01:20:24;9.20;99.90
14097;DHT22;7125;48.106;11.544;2023-04-24T01:22:54;9.20;99.90
14097;DHT22;7125;48.106;11.544;2023-04-24T01:25:22;9.20;99.90
14097;DHT22;7125;48.106;11.544;2023-04-24T01:27:49;9.20;99.90
14097;DHT22;7125;48.106;11.544;2023-04-24T01:30:18;9.20;99.90
14097;DHT22;7125;48.106;11.544;2023-04-24T01:32:45;9.10;99.90
14097;DHT22;7125;48.106;11.544;2023-04-24T01:35:12;9.20;99.90
14097;DHT22;7125;48.106;11.544;2023-04-24T01:37:40;9.20;99.90
14097;DHT22;7125;48.106;11.544;2023-04-24T01:40:09;9.10;99.90
14097;DHT22;7125;48.106;11.544;2023-04-24T01:42:37;9.20;99.90
14097;DHT22;7125;48.106;11.544;2023-04-24T01:45:05;9.10;99.90
14097;DHT22;7125;48.106;11.544;2023-04-24T01:47:32;9.10;99.90
14097;DHT22;7125;48.106;11.544;2023-04-24T01:49:59;9.10;99.90
14097;DHT22;7125;48.106;11.544;2023-04-24T01:52:27;9.10;99.90
14097;DHT22;7125;48.106;11.544;2023-04-24T01:54:59;9.00;99.90
14097;DHT22;7125;48.106;11.544;2023-04-24T01:57:28;9.00;99.90
14097;DHT22;7125;48.106;11.544;2023-04-24T01:59:56;9.00;99.90
14097;DHT22;7125;48.106;11.544;2023-04-24T02:02:23;9.00;99.90
14097;DHT22;7125;48.106;11.544;2023-04-24T02:04:53;9.00;99.90
14097;DHT22;7125;48.106;11.544;2023-04-24T02:07:21;9.00;99.90
14097;DHT22;7125;48.106;11.544;2023-04-24T02:09:48;8.90;99.90
14097;DHT22;7125;48.106;11.544;2023-04-24T02:12:16;8.90;99.90
14097;DHT22;7125;48.106;11.544;2023-04-24T02:14:45;8.90;99.90
14097;DHT22;7125;48.106;11.544;2023-04-24T02:17:12;9.00;99.90
14097;DHT22;7125;48.106;11.544;2023-04-24T02:19:41;9.00;99.90
14097;DHT22;7125;48.106;11.544;2023-04-24T02:22:09;9.00;99.90
14097;DHT22;7125;48.106;11.544;2023-04-24T02:24:37;8.90;99.90
14097;DHT22;7125;48.106;11.544;2023-04-24T02:27:06;8.90;99.90
14097;DHT22;7125;48.106;11.544;2023-04-24T02:29:32;8.90;99.90
14097;DHT22;7125;48.106;11.544;2023-04-24T02:32:01;8.90;99.90
14097;DHT22;7125;48.106;11.544;2023-04-24T02:34:28;8.90;99.90
14097;DHT22;7125;48.106;11.544;2023-04-24T02:36:55;8.90;99.90
14097;DHT22;7125;48.106;11.544;2023-04-24T02:39:23;8.90;99.90
14097;DHT22;7125;48.106;11.544;2023-04-24T02:41:52;8.90;99.90
14097;DHT22;7125;48.106;11.544;2023-04-24T02:44:19;8.80;99.90
14097;DHT22;7125;48.106;11.544;2023-04-24T02:46:47;8.90;99.90
14097;DHT22;7125;48.106;11.544;2023-04-24T02:49:15;8.80;99.90
14097;DHT22;7125;48.106;11.544;2023-04-24T02:51:42;8.80;99.90
14097;DHT22;7125;48.106;11.544;2023-04-24T02:54:09;8.80;99.90
14097;DHT22;7125;48.106;11.544;2023-04-24T02:56:37;8.80;99.90
14097;DHT22;7125;48.106;11.544;2023-04-24T02:59:06;8.80;99.90
14097;DHT22;7125;48.106;11.544;2023-04-24T03:01:34;8.70;99.90
14097;DHT22;7125;48.106;11.544;2023-04-24T03:04:01;8.70;99.90
14097;DHT22;7125;48.106;11.544;2023-04-24T03:06:29;8.70;99.90
14097;DHT22;7125;48.106;11.544;2023-04-24T03:08:58;8.70;99.90
14097;DHT22;7125;48.106;11.544;2023-04-24T03:11:25;8.70;99.90
14097;DHT22;7125;48.106;11.544;2023-04-24T03:13:52;8.70;99.90
14097;DHT22;7125;48.106;11.544;2023-04-24T03:16:19;8.70;99.90
14097;DHT22;7125;48.106;11.544;2023-04-24T03:18:46;8.70;99.90
14097;DHT22;7125;48.106;11.544;2023-04-24T03:21:15;8.60;99.90
14097;DHT22;7125;48.106;11.544;2023-04-24T03:23:44;8.60;99.90
14097;DHT22;7125;48.106;11.544;2023-04-24T03:26:11;8.60;99.90
14097;DHT22;7125;48.106;11.544;2023-04-24T03:28:49;8.60;99.90
14097;DHT22;7125;48.106;11.544;2023-04-24T03:31:16;8.60;99.90
14097;DHT22;7125;48.106;11.544;2023-04-24T03:33:44;8.60;99.90
14097;DHT22;7125;48.106;11.544;2023-04-24T03:36:12;8.60;99.90
14097;DHT22;7125;48.106;11.544;2023-04-24T03:38:40;8.60;99.90
14097;DHT22;7125;48.106;11.544;2023-04-24T03:41:24;8.60;99.90
14097;DHT22;7125;48.106;11.544;2023-04-24T03:44:13;8.60;99.90
14097;DHT22;7125;48.106;11.544;2023-04-24T03:46:41;8.50;99.90
14097;DHT22;7125;48.106;11.544;2023-04-24T03:49:08;8.60;99.90
14097;DHT22;7125;48.106;11.544;2023-04-24T03:51:40;8.60;99.90
14097;DHT22;7125;48.106;11.544;2023-04-24T03:54:14;8.60;99.90
14097;DHT22;7125;48.106;11.544;2023-04-24T03:56:43;8.60;99.90
14097;DHT22;7125;48.106;11.544;2023-04-24T03:59:10;8.60;99.90
14097;DHT22;7125;48.106;11.544;2023-04-24T04:01:39;8.60;99.90
14097;DHT22;7125;48.106;11.544;2023-04-24T04:04:13;8.60;99.90
14097;DHT22;7125;48.106;11.544;2023-04-24T04:06:55;8.60;99.90
14097;DHT22;7125;48.106;11.544;2023-04-24T04:09:24;8.60;99.90
14097;DHT22;7125;48.106;11.544;2023-04-24T04:11:52;8.60;99.90
14097;DHT22;7125;48.106;11.544;2023-04-24T04:14:19;8.50;99.90
14097;DHT22;7125;48.106;11.544;2023-04-24T04:16:47;8.60;99.90
14097;DHT22;7125;48.106;11.544;2023-04-24T04:19:15;8.60;99.90
14097;DHT22;7125;48.106;11.544;2023-04-24T04:21:42;8.60;99.90
14097;DHT22;7125;48.106;11.544;2023-04-24T04:24:33;8.60;99.90
14097;DHT22;7125;48.106;11.544;2023-04-24T04:27:05;8.60;99.90
14097;DHT22;7125;48.106;11.544;2023-04-24T04:29:39;8.60;99.90
14097;DHT22;7125;48.106;11.544;2023-04-24T04:32:08;8.60;99.90
14097;DHT22;7125;48.106;11.544;2023-04-24T04:34:36;8.60;99.90
14097;DHT22;7125;48.106;11.544;2023-04-24T04:37:06;8.50;99.90
14097;DHT22;7125;48.106;11.544;2023-04-24T04:39:53;8.50;99.90
14097;DHT22;7125;48.106;11.544;2023-04-24T04:42:26;8.50;99.90
14097;DHT22;7125;48.106;11.544;2023-04-24T04:44:54;8.50;99.90
14097;DHT22;7125;48.106;11.544;2023-04-24T04:47:27;8.50;99.90
14097;DHT22;7125;48.106;11.544;2023-04-24T04:49:58;8.50;99.90
14097;DHT22;7125;48.106;11.544;2023-04-24T04:52:27;8.40;99.90
14097;DHT22;7125;48.106;11.544;2023-04-24T04:55:03;8.50;99.90
14097;DHT22;7125;48.106;11.544;2023-04-24T04:57:52;8.50;99.90
14097;DHT22;7125;48.106;11.544;2023-04-24T05:00:19;8.40;99.90
14097;DHT22;7125;48.106;11.544;2023-04-24T05:02:51;8.40;99.90
14097;DHT22;7125;48.106;11.544;2023-04-24T05:05:18;8.40;99.90
14097;DHT22;7125;48.106;11.544;2023-04-24T05:07:45;8.40;99.90
14097;DHT22;7125;48.106;11.544;2023-04-24T05:10:12;8.50;99.90
14097;DHT22;7125;48.106;11.544;2023-04-24T05:12:39;8.50;99.90
14097;DHT22;7125;48.106;11.544;2023-04-24T05:15:09;8.60;99.90
14097;DHT22;7125;48.106;11.544;2023-04-24T05:17:37;8.60;99.90
14097;DHT22;7125;48.106;11.544;2023-04-24T05:20:07;8.70;99.90
14097;DHT22;7125;48.106;11.544;2023-04-24T05:22:35;8.70;99.90
14097;DHT22;7125;48.106;11.544;2023-04-24T05:25:03;8.70;99.90
14097;DHT22;7125;48.106;11.544;2023-04-24T05:27:37;8.80;99.90
14097;DHT22;7125;48.106;11.544;2023-04-24T05:30:11;8.80;99.90
14097;DHT22;7125;48.106;11.544;2023-04-24T05:32:40;8.80;99.90
14097;DHT22;7125;48.106;11.544;2023-04-24T05:35:07;8.90;99.90
14097;DHT22;7125;48.106;11.544;2023-04-24T05:37:35;8.90;99.90
14097;DHT22;7125;48.106;11.544;2023-04-24T05:40:03;8.90;99.90
14097;DHT22;7125;48.106;11.544;2023-04-24T05:42:31;9.00;99.90
14097;DHT22;7125;48.106;11.544;2023-04-24T05:45:00;9.00;99.90
14097;DHT22;7125;48.106;11.544;2023-04-24T05:47:29;9.00;99.90
14097;DHT22;7125;48.106;11.544;2023-04-24T05:49:57;9.00;99.90
14097;DHT22;7125;48.106;11.544;2023-04-24T05:52:24;9.10;99.90
14097;DHT22;7125;48.106;11.544;2023-04-24T05:54:52;9.10;99.90
14097;DHT22;7125;48.106;11.544;2023-04-24T05:57:23;9.10;99.90
14097;DHT22;7125;48.106;11.544;2023-04-24T05:59:54;9.10;99.90
14097;DHT22;7125;48.106;11.544;2023-04-24T06:02:21;9.10;99.90
14097;DHT22;7125;48.106;11.544;2023-04-24T06:04:50;9.20;99.90
14097;DHT22;7125;48.106;11.544;2023-04-24T06:07:18;9.20;99.90
14097;DHT22;7125;48.106;11.544;2023-04-24T06:09:47;9.30;99.90
14097;DHT22;7125;48.106;11.544;2023-04-24T06:12:15;9.40;99.90
14097;DHT22;7125;48.106;11.544;2023-04-24T06:17:38;9.60;99.90
14097;DHT22;7125;48.106;11.544;2023-04-24T06:20:08;9.70;99.90
14097;DHT22;7125;48.106;11.544;2023-04-24T06:22:36;9.70;99.90
14097;DHT22;7125;48.106;11.544;2023-04-24T06:25:06;9.80;99.90
14097;DHT22;7125;48.106;11.544;2023-04-24T06:27:33;9.80;99.90
14097;DHT22;7125;48.106;11.544;2023-04-24T06:30:01;9.80;99.90
14097;DHT22;7125;48.106;11.544;2023-04-24T06:32:29;9.80;99.90
14097;DHT22;7125;48.106;11.544;2023-04-24T06:34:59;9.80;99.90
14097;DHT22;7125;48.106;11.544;2023-04-24T06:37:32;9.80;99.90
14097;DHT22;7125;48.106;11.544;2023-04-24T06:39:59;9.80;99.90
14097;DHT22;7125;48.106;11.544;2023-04-24T06:42:27;9.90;99.90
14097;DHT22;7125;48.106;11.544;2023-04-24T06:44:55;10.00;99.90
14097;DHT22;7125;48.106;11.544;2023-04-24T06:47:22;10.10;99.90
14097;DHT22;7125;48.106;11.544;2023-04-24T06:49:51;10.20;99.90
14097;DHT22;7125;48.106;11.544;2023-04-24T06:52:18;10.30;99.90
14097;DHT22;7125;48.106;11.544;2023-04-24T06:54:47;10.40;99.90
14097;DHT22;7125;48.106;11.544;2023-04-24T06:57:14;10.40;99.90
14097;DHT22;7125;48.106;11.544;2023-04-24T06:59:41;10.50;99.90
14097;DHT22;7125;48.106;11.544;2023-04-24T07:02:08;10.60;99.90
14097;DHT22;7125;48.106;11.544;2023-04-24T07:04:35;10.70;99.90
14097;DHT22;7125;48.106;11.544;2023-04-24T07:07:02;10.90;99.90
14097;DHT22;7125;48.106;11.544;2023-04-24T07:09:30;11.00;99.90
14097;DHT22;7125;48.106;11.544;2023-04-24T07:11:58;11.20;99.90
14097;DHT22;7125;48.106;11.544;2023-04-24T07:14:25;11.30;99.90
14097;DHT22;7125;48.106;11.544;2023-04-24T07:16:52;11.30;99.90
14097;DHT22;7125;48.106;11.544;2023-04-24T07:19:20;11.20;99.90
14097;DHT22;7125;48.106;11.544;2023-04-24T07:21:46;11.20;99.90
14097;DHT22;7125;48.106;11.544;2023-04-24T07:24:13;11.00;99.90
14097;DHT22;7125;48.106;11.544;2023-04-24T07:26:40;11.00;99.90
14097;DHT22;7125;48.106;11.544;2023-04-24T07:29:09;11.00;99.90
14097;DHT22;7125;48.106;11.544;2023-04-24T07:31:36;11.00;99.90
14097;DHT22;7125;48.106;11.544;2023-04-24T07:34:03;11.10;99.90
14097;DHT22;7125;48.106;11.544;2023-04-24T07:36:30;11.10;99.90
14097;DHT22;7125;48.106;11.544;2023-04-24T07:38:57;11.20;99.90
14097;DHT22;7125;48.106;11.544;2023-04-24T07:41:25;11.20;99.90
14097;DHT22;7125;48.106;11.544;2023-04-24T07:43:53;11.20;99.90
14097;DHT22;7125;48.106;11.544;2023-04-24T07:46:22;11.10;99.90
14097;DHT22;7125;48.106;11.544;2023-04-24T07:48:50;11.00;99.90
14097;DHT22;7125;48.106;11.544;2023-04-24T07:51:17;10.90;99.90
14097;DHT22;7125;48.106;11.544;2023-04-24T07:53:44;11.00;99.90
14097;DHT22;7125;48.106;11.544;2023-04-24T07:56:12;11.00;99.90
14097;DHT22;7125;48.106;11.544;2023-04-24T07:58:39;11.10;99.90
14097;DHT22;7125;48.106;11.544;2023-04-24T08:01:06;11.20;99.90
14097;DHT22;7125;48.106;11.544;2023-04-24T08:03:35;11.30;99.90
14097;DHT22;7125;48.106;11.544;2023-04-24T08:06:02;11.30;99.90
14097;DHT22;7125;48.106;11.544;2023-04-24T08:08:29;11.40;99.90
14097;DHT22;7125;48.106;11.544;2023-04-24T08:10:56;11.50;99.90
14097;DHT22;7125;48.106;11.544;2023-04-24T08:13:23;11.60;99.90
14097;DHT22;7125;48.106;11.544;2023-04-24T08:15:50;11.70;99.90
14097;DHT22;7125;48.106;11.544;2023-04-24T08:18:16;11.80;99.90
14097;DHT22;7125;48.106;11.544;2023-04-24T08:20:45;11.70;99.90
14097;DHT22;7125;48.106;11.544;2023-04-24T08:23:12;11.70;99.90
14097;DHT22;7125;48.106;11.544;2023-04-24T08:25:39;11.50;99.90
14097;DHT22;7125;48.106;11.544;2023-04-24T08:28:07;11.40;99.90
14097;DHT22;7125;48.106;11.544;2023-04-24T08:30:35;11.30;99.90
14097;DHT22;7125;48.106;11.544;2023-04-24T08:33:02;11.20;99.90
14097;DHT22;7125;48.106;11.544;2023-04-24T08:35:29;11.20;99.90
14097;DHT22;7125;48.106;11.544;2023-04-24T08:37:57;11.20;99.90
14097;DHT22;7125;48.106;11.544;2023-04-24T08:40:28;11.10;99.90
14097;DHT22;7125;48.106;11.544;2023-04-24T08:42:56;10.70;99.90
14097;DHT22;7125;48.106;11.544;2023-04-24T08:45:23;10.50;99.90
14097;DHT22;7125;48.106;11.544;2023-04-24T08:47:52;10.40;99.90
14097;DHT22;7125;48.106;11.544;2023-04-24T08:50:20;10.40;99.90
14097;DHT22;7125;48.106;11.544;2023-04-24T08:52:48;10.50;99.90
14097;DHT22;7125;48.106;11.544;2023-04-24T08:55:17;10.70;99.90
14097;DHT22;7125;48.106;11.544;2023-04-24T08:57:50;10.70;99.90
14097;DHT22;7125;48.106;11.544;2023-04-24T09:00:18;10.70;99.90
14097;DHT22;7125;48.106;11.544;2023-04-24T09:02:47;10.60;99.90
14097;DHT22;7125;48.106;11.544;2023-04-24T09:05:16;10.50;99.90
14097;DHT22;7125;48.106;11.544;2023-04-24T09:07:45;10.40;99.90
14097;DHT22;7125;48.106;11.544;2023-04-24T09:10:17;10.30;99.90
14097;DHT22;7125;48.106;11.544;2023-04-24T09:12:44;10.30;99.90
14097;DHT22;7125;48.106;11.544;2023-04-24T09:15:11;10.30;99.90
14097;DHT22;7125;48.106;11.544;2023-04-24T09:17:39;10.40;99.90
14097;DHT22;7125;48.106;11.544;2023-04-24T09:20:06;10.50;99.90
14097;DHT22;7125;48.106;11.544;2023-04-24T09:22:34;10.60;99.90
14097;DHT22;7125;48.106;11.544;2023-04-24T09:25:02;10.70;99.90
14097;DHT22;7125;48.106;11.544;2023-04-24T09:27:33;10.80;99.90
14097;DHT22;7125;48.106;11.544;2023-04-24T09:30:00;10.90;99.90
14097;DHT22;7125;48.106;11.544;2023-04-24T09:32:27;11.00;99.90
14097;DHT22;7125;48.106;11.544;2023-04-24T09:35:09;11.20;99.90
14097;DHT22;7125;48.106;11.544;2023-04-24T09:37:37;11.30;99.90
14097;DHT22;7125;48.106;11.544;2023-04-24T09:40:09;11.50;99.90
14097;DHT22;7125;48.106;11.544;2023-04-24T09:42:38;11.60;99.90
14097;DHT22;7125;48.106;11.544;2023-04-24T09:45:09;11.80;99.90
14097;DHT22;7125;48.106;11.544;2023-04-24T09:47:37;12.00;99.90
14097;DHT22;7125;48.106;11.544;2023-04-24T09:50:13;12.20;99.90
14097;DHT22;7125;48.106;11.544;2023-04-24T09:52:44;12.40;99.90
14097;DHT22;7125;48.106;11.544;2023-04-24T09:55:18;12.40;99.90
14097;DHT22;7125;48.106;11.544;2023-04-24T09:57:53;12.60;99.90
14097;DHT22;7125;48.106;11.544;2023-04-24T10:00:25;12.60;99.90
14097;DHT22;7125;48.106;11.544;2023-04-24T10:02:57;12.70;99.90
14097;DHT22;7125;48.106;11.544;2023-04-24T10:05:27;12.80;99.90
14097;DHT22;7125;48.106;11.544;2023-04-24T10:07:56;12.80;99.90
14097;DHT22;7125;48.106;11.544;2023-04-24T10:10:24;12.90;99.90
14097;DHT22;7125;48.106;11.544;2023-04-24T10:12:52;13.10;99.90
14097;DHT22;7125;48.106;11.544;2023-04-24T10:15:20;13.30;99.90
14097;DHT22;7125;48.106;11.544;2023-04-24T10:17:48;13.40;99.90
14097;DHT22;7125;48.106;11.544;2023-04-24T10:20:19;13.50;99.90
14097;DHT22;7125;48.106;11.544;2023-04-24T10:22:49;13.50;99.90
14097;DHT22;7125;48.106;11.544;2023-04-24T10:25:30;13.40;99.90
14097;DHT22;7125;48.106;11.544;2023-04-24T10:28:02;13.40;99.90
14097;DHT22;7125;48.106;11.544;2023-04-24T10:30:31;13.50;99.90
14097;DHT22;7125;48.106;11.544;2023-04-24T10:33:05;13.60;99.90
14097;DHT22;7125;48.106;11.544;2023-04-24T10:35:34;13.80;99.90
14097;DHT22;7125;48.106;11.544;2023-04-24T10:38:05;13.80;99.90
14097;DHT22;7125;48.106;11.544;2023-04-24T10:40:35;13.60;99.90
14097;DHT22;7125;48.106;11.544;2023-04-24T10:43:05;13.30;99.90
14097;DHT22;7125;48.106;11.544;2023-04-24T10:45:33;13.10;99.90
14097;DHT22;7125;48.106;11.544;2023-04-24T10:48:02;12.90;99.90
14097;DHT22;7125;48.106;11.544;2023-04-24T10:50:41;12.80;99.90
14097;DHT22;7125;48.106;11.544;2023-04-24T10:53:13;12.70;99.90
14097;DHT22;7125;48.106;11.544;2023-04-24T10:55:46;12.40;99.90
14097;DHT22;7125;48.106;11.544;2023-04-24T10:58:17;11.80;99.90
14097;DHT22;7125;48.106;11.544;2023-04-24T11:00:56;11.20;99.90
14097;DHT22;7125;48.106;11.544;2023-04-24T11:03:26;10.70;99.90
14097;DHT22;7125;48.106;11.544;2023-04-24T11:05:56;10.30;99.90
14097;DHT22;7125;48.106;11.544;2023-04-24T11:08:32;10.10;99.90
14097;DHT22;7125;48.106;11.544;2023-04-24T11:11:08;10.10;99.90
14097;DHT22;7125;48.106;11.544;2023-04-24T11:14:05;10.30;99.90
14097;DHT22;7125;48.106;11.544;2023-04-24T11:16:37;10.50;99.90
14097;DHT22;7125;48.106;11.544;2023-04-24T11:19:07;10.90;99.90
14097;DHT22;7125;48.106;11.544;2023-04-24T11:21:43;11.40;99.90
14097;DHT22;7125;48.106;11.544;2023-04-24T11:24:30;11.80;99.90
14097;DHT22;7125;48.106;11.544;2023-04-24T11:26:59;12.10;99.90
14097;DHT22;7125;48.106;11.544;2023-04-24T11:29:42;12.40;99.90
14097;DHT22;7125;48.106;11.544;2023-04-24T11:32:24;12.60;99.90
14097;DHT22;7125;48.106;11.544;2023-04-24T11:34:53;12.80;99.90
14097;DHT22;7125;48.106;11.544;2023-04-24T11:37:22;13.00;99.90
14097;DHT22;7125;48.106;11.544;2023-04-24T11:39:52;13.40;99.90
14097;DHT22;7125;48.106;11.544;2023-04-24T11:42:20;13.80;99.90
14097;DHT22;7125;48.106;11.544;2023-04-24T11:44:49;14.00;99.90
14097;DHT22;7125;48.106;11.544;2023-04-24T11:47:16;14.10;99.90
14097;DHT22;7125;48.106;11.544;2023-04-24T11:49:43;14.20;99.90
14097;DHT22;7125;48.106;11.544;2023-04-24T11:52:10;14.30;99.90
14097;DHT22;7125;48.106;11.544;2023-04-24T11:54:37;14.20;99.90
14097;DHT22;7125;48.106;11.544;2023-04-24T11:57:05;14.10;99.90
14097;DHT22;7125;48.106;11.544;2023-04-24T11:59:36;14.00;99.90
14097;DHT22;7125;48.106;11.544;2023-04-24T12:02:05;13.70;99.90
14097;DHT22;7125;48.106;11.544;2023-04-24T12:04:39;13.40;99.90
14097;DHT22;7125;48.106;11.544;2023-04-24T12:07:07;13.00;99.90
14097;DHT22;7125;48.106;11.544;2023-04-24T12:09:42;12.80;99.90
14097;DHT22;7125;48.106;11.544;2023-04-24T12:12:10;12.70;99.90
14097;DHT22;7125;48.106;11.544;2023-04-24T12:14:48;12.70;99.90
14097;DHT22;7125;48.106;11.544;2023-04-24T12:17:17;12.80;99.90
14097;DHT22;7125;48.106;11.544;2023-04-24T12:19:48;12.90;99.90
14097;DHT22;7125;48.106;11.544;2023-04-24T12:22:16;13.00;99.90
14097;DHT22;7125;48.106;11.544;2023-04-24T12:25:00;13.20;99.90
14097;DHT22;7125;48.106;11.544;2023-04-24T12:27:29;13.10;99.90
14097;DHT22;7125;48.106;11.544;2023-04-24T12:29:57;13.00;99.90
14097;DHT22;7125;48.106;11.544;2023-04-24T12:32:26;13.00;99.90
14097;DHT22;7125;48.106;11.544;2023-04-24T12:34:54;13.10;99.90
14097;DHT22;7125;48.106;11.544;2023-04-24T12:37:23;13.30;99.90
14097;DHT22;7125;48.106;11.544;2023-04-24T12:40:01;13.70;99.90
14097;DHT22;7125;48.106;11.544;2023-04-24T12:42:30;13.80;99.90
14097;DHT22;7125;48.106;11.544;2023-04-24T12:44:58;14.10;99.90
14097;DHT22;7125;48.106;11.544;2023-04-24T12:47:28;14.30;99.90
14097;DHT22;7125;48.106;11.544;2023-04-24T12:49:55;14.40;99.90
14097;DHT22;7125;48.106;11.544;2023-04-24T12:52:22;14.40;99.90
14097;DHT22;7125;48.106;11.544;2023-04-24T12:54:49;14.40;99.90
14097;DHT22;7125;48.106;11.544;2023-04-24T12:57:17;14.30;99.90
14097;DHT22;7125;48.106;11.544;2023-04-24T12:59:45;14.20;99.90
14097;DHT22;7125;48.106;11.544;2023-04-24T13:02:12;14.20;99.90
14097;DHT22;7125;48.106;11.544;2023-04-24T13:04:41;14.30;99.90
14097;DHT22;7125;48.106;11.544;2023-04-24T13:07:08;14.30;99.90
14097;DHT22;7125;48.106;11.544;2023-04-24T13:09:35;14.30;99.90
14097;DHT22;7125;48.106;11.544;2023-04-24T13:12:02;14.40;99.90
14097;DHT22;7125;48.106;11.544;2023-04-24T13:14:31;14.50;99.90
14097;DHT22;7125;48.106;11.544;2023-04-24T13:16:58;14.60;99.90
14097;DHT22;7125;48.106;11.544;2023-04-24T13:19:25;14.90;99.90
14097;DHT22;7125;48.106;11.544;2023-04-24T13:21:55;15.00;99.90
14097;DHT22;7125;48.106;11.544;2023-04-24T13:24:23;14.70;99.90
14097;DHT22;7125;48.106;11.544;2023-04-24T13:26:50;14.30;99.90
14097;DHT22;7125;48.106;11.544;2023-04-24T13:29:17;13.90;99.90
14097;DHT22;7125;48.106;11.544;2023-04-24T13:31:44;13.80;99.90
14097;DHT22;7125;48.106;11.544;2023-04-24T13:34:11;13.70;99.90
14097;DHT22;7125;48.106;11.544;2023-04-24T13:36:39;13.70;99.90
14097;DHT22;7125;48.106;11.544;2023-04-24T13:39:07;13.80;99.90
14097;DHT22;7125;48.106;11.544;2023-04-24T13:41:34;13.80;99.90
14097;DHT22;7125;48.106;11.544;2023-04-24T13:44:02;13.80;99.90
14097;DHT22;7125;48.106;11.544;2023-04-24T13:46:28;13.70;99.20
14097;DHT22;7125;48.106;11.544;2023-04-24T13:48:56;13.70;99.90
14097;DHT22;7125;48.106;11.544;2023-04-24T13:51:25;13.80;99.90
14097;DHT22;7125;48.106;11.544;2023-04-24T13:53:52;13.80;99.90
14097;DHT22;7125;48.106;11.544;2023-04-24T13:56:21;14.00;99.80
14097;DHT22;7125;48.106;11.544;2023-04-24T13:58:48;14.10;99.90
14097;DHT22;7125;48.106;11.544;2023-04-24T14:01:15;14.10;99.90
14097;DHT22;7125;48.106;11.544;2023-04-24T14:03:43;14.00;99.40
14097;DHT22;7125;48.106;11.544;2023-04-24T14:06:10;13.80;98.90
14097;DHT22;7125;48.106;11.544;2023-04-24T14:08:37;13.70;99.30
14097;DHT22;7125;48.106;11.544;2023-04-24T14:11:04;13.80;99.10
14097;DHT22;7125;48.106;11.544;2023-04-24T14:13:32;14.10;99.30
14097;DHT22;7125;48.106;11.544;2023-04-24T14:15:59;14.70;99.70
14097;DHT22;7125;48.106;11.544;2023-04-24T14:18:29;15.10;97.30
14097;DHT22;7125;48.106;11.544;2023-04-24T14:20:55;15.40;95.40
14097;DHT22;7125;48.106;11.544;2023-04-24T14:23:22;15.30;94.30
14097;DHT22;7125;48.106;11.544;2023-04-24T14:25:49;15.10;93.70
14097;DHT22;7125;48.106;11.544;2023-04-24T14:28:18;15.00;93.70
14097;DHT22;7125;48.106;11.544;2023-04-24T14:30:47;15.10;94.00
14097;DHT22;7125;48.106;11.544;2023-04-24T14:33:17;15.30;92.80
14097;DHT22;7125;48.106;11.544;2023-04-24T14:35:47;15.30;92.60
14097;DHT22;7125;48.106;11.544;2023-04-24T14:38:16;15.20;92.70
14097;DHT22;7125;48.106;11.544;2023-04-24T14:40:43;15.00;91.90
14097;DHT22;7125;48.106;11.544;2023-04-24T14:43:11;15.00;92.00
14097;DHT22;7125;48.106;11.544;2023-04-24T14:45:43;15.10;92.10
14097;DHT22;7125;48.106;11.544;2023-04-24T14:48:12;15.10;92.00
14097;DHT22;7125;48.106;11.544;2023-04-24T14:50:40;14.90;92.40
14097;DHT22;7125;48.106;11.544;2023-04-24T14:55:46;14.70;92.10
14097;DHT22;7125;48.106;11.544;2023-04-24T14:58:18;14.60;90.90
14097;DHT22;7125;48.106;11.544;2023-04-24T15:00:50;14.50;91.20
14097;DHT22;7125;48.106;11.544;2023-04-24T15:03:24;14.60;91.50
14097;DHT22;7125;48.106;11.544;2023-04-24T15:05:53;14.80;90.30
14097;DHT22;7125;48.106;11.544;2023-04-24T15:08:23;15.00;89.60
14097;DHT22;7125;48.106;11.544;2023-04-24T15:10:55;15.10;89.10
14097;DHT22;7125;48.106;11.544;2023-04-24T15:13:24;15.00;89.30
14097;DHT22;7125;48.106;11.544;2023-04-24T15:15:59;15.00;89.70
14097;DHT22;7125;48.106;11.544;2023-04-24T15:18:35;15.00;88.30
14097;DHT22;7125;48.106;11.544;2023-04-24T15:29:06;15.20;87.90
14097;DHT22;7125;48.106;11.544;2023-04-24T15:31:34;15.70;82.40
14097;DHT22;7125;48.106;11.544;2023-04-24T15:34:09;15.70;81.10
14097;DHT22;7125;48.106;11.544;2023-04-24T15:39:19;15.30;81.90
14097;DHT22;7125;48.106;11.544;2023-04-24T15:41:48;15.40;83.00
14097;DHT22;7125;48.106;11.544;2023-04-24T15:44:16;15.60;80.20
14097;DHT22;7125;48.106;11.544;2023-04-24T15:46:43;15.70;79.40
14097;DHT22;7125;48.106;11.544;2023-04-24T15:49:12;15.50;80.50
14097;DHT22;7125;48.106;11.544;2023-04-24T15:51:41;15.20;80.20
14097;DHT22;7125;48.106;11.544;2023-04-24T15:56:53;14.70;82.20
14097;DHT22;7125;48.106;11.544;2023-04-24T15:59:22;14.40;82.30
14097;DHT22;7125;48.106;11.544;2023-04-24T16:04:36;14.10;84.20
14097;DHT22;7125;48.106;11.544;2023-04-24T16:07:06;14.00;83.90
14097;DHT22;7125;48.106;11.544;2023-04-24T16:09:33;13.90;84.10
14097;DHT22;7125;48.106;11.544;2023-04-24T16:17:25;14.00;83.50